Menu Close Menu
Station Historical Data
Daily Summary for May 1, 2017 Units:  Metric    English   Both
« Previous Day
Next Day »
Daily Weekly Monthly Yearly Custom
  High: Low: Average:
Temperature: 23.1 °C 15.9 °C 19.2 °C
Dew Point: 19.3 °C 5.3 °C 12.8 °C
Humidity: 92% 35% 70%
Wind Speed: 1.6km/h 0km/h 0.2km/h
Wind Gust: 9.7km/h - -
Wind- - WNW
Pressure: 1016.1 hPa 1010.4 hPa -
Precipitation: 4.83 mm    
Historical Graphs
 
 
Tabular Data for May 1, 2017
Time Temperature Dew Point Pressure Wind Wind Speed Wind Gust Humidity Rainfall Rate (Hourly) solar Conditions
00:00 18.6 °C 17.1 °C 1016.1 hPa Calm     91% 0 mm WeatherDisplay:10.37 W/m2 RA
00:15 18.6 °C 17.2 °C 1015.5 hPa Calm   1.6 km/h 92% 0 mm WeatherDisplay:10.37 W/m2 SCT
00:30 18.5 °C 17.2 °C 1014.4 hPa Calm   1.6 km/h 92% 0 mm WeatherDisplay:10.37 W/m2 SCT
00:45 18.6 °C 17.2 °C 1014.1 hPa Calm   1.6 km/h 92% 0 mm WeatherDisplay:10.37 W/m2 SCT
01:00 18.6 °C 17.1 °C 1013.8 hPa Calm   1.6 km/h 91% 0 mm WeatherDisplay:10.37 W/m2 SCT
01:15 18.7 °C 17.2 °C 1012.8 hPa Calm   1.6 km/h 91% 0.51 mm WeatherDisplay:10.37 W/m2 SCT
01:30 18.7 °C 17.2 °C 1012.8 hPa Calm     91% 0 mm WeatherDisplay:10.37 W/m2 SCT
01:45 18.7 °C 17.3 °C 1012.8 hPa Calm     92% 0 mm WeatherDisplay:10.37 W/m2 SCT
02:00 18.7 °C 17.3 °C 1012.4 hPa Calm     92% 0 mm WeatherDisplay:10.37 W/m2 SCT
02:15 18.7 °C 17.3 °C 1012.4 hPa Calm   1.6 km/h 92% 0 mm WeatherDisplay:10.37 W/m2 SCT
02:30 18.7 °C 17.3 °C 1012.4 hPa Calm     92% 0 mm WeatherDisplay:10.37 W/m2 SCT
02:45 18.7 °C 17.4 °C 1012.4 hPa Calm     92% 0 mm WeatherDisplay:10.37 W/m2 SCT
03:00 18.8 °C 17.3 °C 1012.4 hPa Calm   1.6 km/h 91% 0 mm WeatherDisplay:10.37 W/m2 SCT
03:15 18.9 °C 17.2 °C 1012.1 hPa Calm   1.6 km/h 90% 0 mm WeatherDisplay:10.37 W/m2 SCT
03:30 18.6 °C 16.8 °C 1011.4 hPa Calm   1.6 km/h 89% 0 mm WeatherDisplay:10.37 W/m2 SCT
03:45 18.5 °C 16.7 °C 1012.1 hPa Calm   1.6 km/h 89% 0 mm WeatherDisplay:10.37 W/m2 SCT
04:00 18.5 °C 16.7 °C 1011.7 hPa Calm     89% 0 mm WeatherDisplay:10.37 W/m2 SCT
04:15 18.5 °C 16.7 °C 1012.1 hPa Calm     89% 0 mm WeatherDisplay:10.37 W/m2 SCT
04:30 18.5 °C 16.7 °C 1012.1 hPa Calm     89% 0 mm WeatherDisplay:10.37 W/m2 SCT
04:45 18.5 °C 16.7 °C 1012.1 hPa Calm     89% 0 mm WeatherDisplay:10.37 W/m2 SCT
05:00 18.5 °C 16.7 °C 1012.1 hPa Calm     89% 0 mm WeatherDisplay:10.37 W/m2 SCT
05:15 18.5 °C 16.7 °C 1012.4 hPa Calm     89% 0 mm WeatherDisplay:10.37 W/m2 SCT
05:30 18.5 °C 16.7 °C 1012.1 hPa Calm     89% 0 mm WeatherDisplay:10.37 W/m2 SCT
05:45 18.5 °C 16.7 °C 1012.1 hPa Calm     89% 0 mm WeatherDisplay:10.37 W/m2 SCT
06:00 18.5 °C 16.7 °C 1012.4 hPa Calm     89% 0 mm WeatherDisplay:10.37 W/m2 SCT
06:15 18.5 °C 16.7 °C 1012.4 hPa Calm     89% 0 mm WeatherDisplay:10.37 W/m2 SCT
06:30 18.5 °C 16.7 °C 1012.1 hPa Calm     89% 0 mm WeatherDisplay:10.37 W/m2 SCT
06:45 18.5 °C 16.7 °C 1011.7 hPa Calm     89% 0 mm WeatherDisplay:10.37 W/m2 SCT
07:00 18.5 °C 16.7 °C 1011.7 hPa Calm     89% 0 mm WeatherDisplay:10.37 W/m2 SCT
07:15 18.5 °C 16.7 °C 1011.7 hPa Calm     89% 0 mm WeatherDisplay:10.37 W/m2 SCT
07:30 18.5 °C 16.7 °C 1011.7 hPa Calm     89% 0 mm WeatherDisplay:10.37 W/m2 SCT
07:45 18.5 °C 16.7 °C 1011.7 hPa Calm     89% 0 mm WeatherDisplay:10.37 W/m2 SCT
08:00 18.5 °C 16.7 °C 1011.7 hPa Calm     89% 0 mm WeatherDisplay:10.37 W/m2 SCT
08:15 18.5 °C 16.7 °C 1011.7 hPa Calm     89% 0 mm WeatherDisplay:10.37 W/m2 SCT
08:30 18.5 °C 16.7 °C 1011.7 hPa Calm     89% 0 mm WeatherDisplay:10.37 W/m2 SCT
08:45 18.5 °C 16.7 °C 1011.7 hPa Calm     89% 0 mm WeatherDisplay:10.37 W/m2 SCT
09:00 18.5 °C 16.7 °C 1011.4 hPa Calm     89% 0 mm WeatherDisplay:10.37 W/m2 SCT
09:15 20.6 °C 19.3 °C 1011.7 hPa NW 1.6 km/h 4.8 km/h 92% 0 mm WeatherDisplay:10.37 W/m2 SCT
09:30 20.7 °C 19.3 °C 1011.7 hPa Calm   4.8 km/h 92% 0 mm WeatherDisplay:10.37 W/m2 SCT
09:45 20.7 °C 19.3 °C 1011.1 hPa Calm   4.8 km/h 92% 0.76 mm WeatherDisplay:10.37 W/m2 RA
10:00 20.3 °C 18.7 °C 1012.1 hPa NW 1.6 km/h 3.2 km/h 91% 3.3 mm WeatherDisplay:10.37 W/m2 RA
10:15 19.6 °C 18.1 °C 1012.4 hPa Calm   3.2 km/h 91% 0.25 mm WeatherDisplay:10.37 W/m2 SCT
10:30 19.5 °C 18.2 °C 1012.4 hPa Calm   1.6 km/h 92% 0 mm WeatherDisplay:10.37 W/m2 SCT
10:45 19.1 °C 17.2 °C 1013.1 hPa Calm   3.2 km/h 89% 0 mm WeatherDisplay:10.37 W/m2 SCT
11:00 18.4 °C 16.6 °C 1012.8 hPa Calm   1.6 km/h 89% 0 mm WeatherDisplay:10.37 W/m2 SCT
11:15 18.8 °C 16.8 °C 1013.1 hPa Calm   1.6 km/h 88% 0 mm WeatherDisplay:10.37 W/m2 SCT
11:30 17.3 °C 13.1 °C 1013.8 hPa NW 1.6 km/h 4.8 km/h 76% 0 mm WeatherDisplay:10.37 W/m2 SCT
11:45 16.6 °C 12.3 °C 1014.1 hPa Calm   4.8 km/h 76% 0 mm WeatherDisplay:10.37 W/m2 SCT
12:00 16.4 °C 11.9 °C 1014.1 hPa Calm   3.2 km/h 75% 0 mm WeatherDisplay:10.37 W/m2 SCT
12:15 15.9 °C 12.1 °C 1014.1 hPa Calm   1.6 km/h 78% 0 mm WeatherDisplay:10.37 W/m2 SCT
12:30 16.1 °C 12.1 °C 1013.8 hPa Calm   1.6 km/h 77% 0 mm WeatherDisplay:10.37 W/m2 SCT
12:45 17.4 °C 12.1 °C 1013.8 hPa Calm   1.6 km/h 71% 0 mm WeatherDisplay:10.37 W/m2 SCT
13:00 18.3 °C 11.9 °C 1013.4 hPa Calm   9.7 km/h 66% 0 mm WeatherDisplay:10.37 W/m2 SCT
13:15 18.8 °C 11.4 °C 1013.1 hPa Calm   4.8 km/h 62% 0 mm WeatherDisplay:10.37 W/m2 SCT
13:30 18.8 °C 10.4 °C 1012.8 hPa Calm   3.2 km/h 58% 0 mm WeatherDisplay:10.37 W/m2 SCT
13:45 18.2 °C 9.3 °C 1013.1 hPa North 1.6 km/h 3.2 km/h 56% 0 mm WeatherDisplay:10.37 W/m2 SCT
14:00 18.1 °C 10.7 °C 1013.1 hPa Calm   1.6 km/h 62% 0 mm WeatherDisplay:10.37 W/m2 SCT
14:15 18.3 °C 11.2 °C 1012.8 hPa Calm   1.6 km/h 63% 0 mm WeatherDisplay:10.37 W/m2 SCT
14:30 18.8 °C 11.1 °C 1012.8 hPa Calm   3.2 km/h 61% 0 mm WeatherDisplay:10.37 W/m2 SCT
14:45 19.3 °C 10.3 °C 1012.4 hPa Calm   1.6 km/h 56% 0 mm WeatherDisplay:10.37 W/m2 SCT
15:00 20.5 °C 10.9 °C 1012.1 hPa WSW 1.6 km/h 3.2 km/h 54% 0 mm WeatherDisplay:10.37 W/m2 SCT
15:15 20.7 °C 9.6 °C 1011.7 hPa Calm   4.8 km/h 49% 0 mm WeatherDisplay:10.37 W/m2 SCT
15:30 20.8 °C 9.1 °C 1011.7 hPa Calm   3.2 km/h 47% 0 mm WeatherDisplay:10.37 W/m2 SCT
15:45 21.5 °C 9.7 °C 1011.4 hPa Calm   4.8 km/h 47% 0 mm WeatherDisplay:10.37 W/m2 SCT
16:00 21.7 °C 10.2 °C 1011.1 hPa NE 1.6 km/h 3.2 km/h 48% 0 mm WeatherDisplay:10.37 W/m2 SCT
16:15 21.8 °C 10.3 °C 1010.7 hPa Calm   4.8 km/h 48% 0 mm WeatherDisplay:10.37 W/m2 SCT
16:30 22.2 °C 11.6 °C 1010.7 hPa Calm   3.2 km/h 51% 0 mm WeatherDisplay:10.37 W/m2 SCT
16:45 22.3 °C 10.7 °C 1010.7 hPa Calm   4.8 km/h 48% 0 mm WeatherDisplay:10.37 W/m2 SCT
17:00 22.6 °C 11.9 °C 1010.4 hPa Calm   3.2 km/h 51% 0 mm WeatherDisplay:10.37 W/m2 SCT
17:15 22.9 °C 11 °C 1010.4 hPa Calm   4.8 km/h 47% 0 mm WeatherDisplay:10.37 W/m2 SCT
17:30 23 °C 11.1 °C 1010.4 hPa Calm   4.8 km/h 47% 0 mm WeatherDisplay:10.37 W/m2 SCT
17:45 22.9 °C 10.4 °C 1010.4 hPa WNW 1.6 km/h 4.8 km/h 45% 0 mm WeatherDisplay:10.37 W/m2 SCT
18:00 23.1 °C 7.6 °C 1010.4 hPa Calm   3.2 km/h 37% 0 mm WeatherDisplay:10.37 W/m2 SCT
18:15 22.9 °C 7.9 °C 1010.4 hPa Calm   8 km/h 38% 0 mm WeatherDisplay:10.37 W/m2 SCT
18:30 22.6 °C 6.7 °C 1010.4 hPa North 1.6 km/h 4.8 km/h 36% 0 mm WeatherDisplay:10.37 W/m2 SCT
18:45 22.3 °C 6.8 °C 1010.4 hPa Calm   3.2 km/h 37% 0 mm WeatherDisplay:10.37 W/m2 SCT
19:00 21.8 °C 6.5 °C 1010.7 hPa West 1.6 km/h 8 km/h 37% 0 mm WeatherDisplay:10.37 W/m2 SCT
19:15 21.7 °C 7.1 °C 1010.7 hPa Calm   3.2 km/h 39% 0 mm WeatherDisplay:10.37 W/m2 SCT
19:30 21.4 °C 5.3 °C 1010.7 hPa Calm   3.2 km/h 35% 0 mm WeatherDisplay:10.37 W/m2 SCT
19:45 21.1 °C 6.6 °C 1010.7 hPa Calm   3.2 km/h 39% 0 mm WeatherDisplay:10.37 W/m2 SCT
20:00 20.3 °C 6.6 °C 1010.7 hPa Calm     41% 0 mm WeatherDisplay:10.37 W/m2 SCT
20:15 19.8 °C 7.6 °C 1011.1 hPa Calm     45% 0 mm WeatherDisplay:10.37 W/m2 SCT
20:30 19.6 °C 7 °C 1011.1 hPa Calm   3.2 km/h 44% 0 mm WeatherDisplay:10.37 W/m2 SCT
20:45 19.1 °C 6.2 °C 1011.4 hPa Calm     43% 0 mm WeatherDisplay:10.37 W/m2 SCT
21:00 18.8 °C 6.3 °C 1011.4 hPa Calm     44% 0 mm WeatherDisplay:10.37 W/m2 SCT
21:15 18.4 °C 6.6 °C 1011.4 hPa Calm     46% 0 mm WeatherDisplay:10.37 W/m2 SCT
21:30 17.9 °C 7.1 °C 1011.7 hPa Calm     49% 0 mm WeatherDisplay:10.37 W/m2 SCT
21:45 17.7 °C 5.6 °C 1012.1 hPa Calm   3.2 km/h 45% 0 mm WeatherDisplay:10.37 W/m2 SCT
22:00 17.4 °C 5.7 °C 1012.1 hPa Calm     46% 0 mm WeatherDisplay:10.37 W/m2 SCT
22:15 17 °C 6.2 °C 1012.4 hPa Calm     49% 0 mm WeatherDisplay:10.37 W/m2 SCT
22:30 16.7 °C 5.9 °C 1012.4 hPa Calm   1.6 km/h 49% 0 mm WeatherDisplay:10.37 W/m2 SCT
22:45 16.8 °C 5.4 °C 1012.4 hPa Calm   1.6 km/h 47% 0 mm WeatherDisplay:10.37 W/m2 SCT
23:00 16.6 °C 5.5 °C 1012.4 hPa Calm     48% 0 mm WeatherDisplay:10.37 W/m2 SCT
23:15 16.6 °C 5.8 °C 1012.8 hPa Calm   3.2 km/h 49% 0 mm WeatherDisplay:10.37 W/m2 SCT
23:30 16.2 °C 5.5 °C 1012.8 hPa Calm   1.6 km/h 49% 0 mm WeatherDisplay:10.37 W/m2 SCT
23:45 16.2 °C 5.5 °C 1013.1 hPa Calm   1.6 km/h 49% 0 mm WeatherDisplay:10.37 W/m2 SCT
Piedmont Bend
Compliments of Weather Underground - 4 mb